In Rescue
 
Open Full Screen Window  High Contrast Mode
Wind Gusting 00 knots
03
November 19, 2019 1:25 PM EST
Present Weather: Haze
Weather Information
Wind Direction
  210 °
Wind Speed
  03 kt (3 mph)
Wind Gust
  00 kt (0 mph)
Altimeter
29.80 in
Visibility
5 SM
Temperature
03° C
37° F
Dewpoint
00° C
32° F
Humidity
81%
Sky Condition
Overcast @ 4,000 ft
MVFR

METAR KBAX 191825Z AUTO 21003KT 5SM HZ OVC040 03/00 A2980 RMK AO2 T00270001

FAA Disclaimer: The data displayed is for advisory purposes only and is not to be used for flight planning or operations.